Time;durP1;ratioP1;P1;durP2;ratioP2;P2;SDS_P1;SDS_P2;PMS_P1;PMS_P2;Temp;Humidity;BMP_temperature;BMP_pressure;BME280_temperature;BME280_humidity;BME280_pressure;Samples;Min_cycle;Max_cycle;Signal;HPM_P1;HPM_P2
2023/12/10 00:00:06;;;;;;;0.60;0.60;;;19.20;58.20;;;;;;4956023;28;20237;-70
2023/12/10 00:02:32;;;;;;;0.80;0.80;;;19.30;58.30;;;;;;4988759;28;20235;-71
2023/12/10 00:04:58;;;;;;;1.13;0.73;;;19.30;58.30;;;;;;4968670;28;20188;-71
2023/12/10 00:07:24;;;;;;;0.80;0.70;;;19.30;58.30;;;;;;4988378;28;20186;-70
2023/12/10 00:09:51;;;;;;;0.75;0.70;;;19.20;58.20;;;;;;4955561;28;20225;-71
2023/12/10 00:12:16;;;;;;;0.90;0.90;;;19.30;58.30;;;;;;4976473;28;20198;-70
2023/12/10 00:14:42;;;;;;;0.70;0.70;;;19.30;58.40;;;;;;4972288;28;20192;-72
2023/12/10 00:17:08;;;;;;;0.70;0.70;;;19.30;58.30;;;;;;4977438;28;20197;-71
2023/12/10 00:19:34;;;;;;;1.10;0.90;;;19.30;58.30;;;;;;4971858;28;20217;-71
2023/12/10 00:22:00;;;;;;;0.60;0.60;;;19.30;58.30;;;;;;4976035;28;20229;-71
2023/12/10 00:24:26;;;;;;;0.93;0.80;;;19.30;58.40;;;;;;4958879;28;20194;-71
2023/12/10 00:26:52;;;;;;;0.60;0.60;;;19.30;58.30;;;;;;4984664;28;20588;-71
2023/12/10 00:29:18;;;;;;;0.80;0.80;;;19.30;58.30;;;;;;4990991;28;20269;-71
2023/12/10 00:31:44;;;;;;;1.48;0.82;;;19.30;58.30;;;;;;4979184;28;20593;-70
2023/12/10 00:34:11;;;;;;;1.33;0.63;;;19.30;59.00;;;;;;4968707;28;20225;-71
2023/12/10 00:36:36;;;;;;;0.70;0.70;;;19.30;58.40;;;;;;4985830;28;20189;-72
2023/12/10 00:39:06;;;;;;;0.80;0.80;;;19.30;58.40;;;;;;4967846;28;20260;-71
2023/12/10 00:41:32;;;;;;;1.23;0.80;;;19.30;58.30;;;;;;4975746;28;20192;-73
2023/12/10 00:43:59;;;;;;;1.77;0.95;;;19.30;58.40;;;;;;4973225;28;20271;-71
2023/12/10 00:46:25;;;;;;;0.80;0.80;;;19.30;58.40;;;;;;4971883;28;20190;-71
2023/12/10 00:48:50;;;;;;;1.05;0.70;;;19.30;58.40;;;;;;4971386;28;20298;-71
2023/12/10 00:51:23;;;;;;;0.90;0.70;;;19.30;58.40;;;;;;4972679;28;20221;-71
2023/12/10 00:53:50;;;;;;;0.90;0.90;;;19.30;58.40;;;;;;4987765;28;20186;-70
2023/12/10 00:56:16;;;;;;;1.05;0.80;;;19.30;58.40;;;;;;4970914;28;20281;-71
2023/12/10 00:58:43;;;;;;;0.90;0.80;;;19.30;58.40;;;;;;4971347;28;20582;-70
2023/12/10 01:01:08;;;;;;;0.52;0.52;;;19.30;58.40;;;;;;4973651;28;20747;-72
2023/12/10 01:03:35;;;;;;;0.65;0.63;;;19.30;58.40;;;;;;4971598;28;20182;-72
2023/12/10 01:06:06;;;;;;;0.90;0.85;;;19.30;58.40;;;;;;4972796;28;20194;-71
2023/12/10 01:08:32;;;;;;;1.15;0.77;;;19.30;58.40;;;;;;4987325;28;20214;-71
2023/12/10 01:11:02;;;;;;;0.80;0.80;;;19.30;58.40;;;;;;4987949;28;20271;-72
2023/12/10 01:13:28;;;;;;;1.25;0.88;;;19.20;58.30;;;;;;4973960;28;20201;-71
2023/12/10 01:15:55;;;;;;;1.17;0.80;;;19.30;58.40;;;;;;4971798;28;20224;-71
2023/12/10 01:18:22;;;;;;;2.13;0.90;;;19.30;58.40;;;;;;4954558;28;20194;-71
2023/12/10 01:20:48;;;;;;;1.13;0.80;;;19.30;58.40;;;;;;4972759;28;20253;-72
2023/12/10 01:23:14;;;;;;;0.98;0.70;;;19.30;58.40;;;;;;4977287;28;20693;-72
2023/12/10 01:25:44;;;;;;;0.82;0.82;;;19.30;58.40;;;;;;4991081;28;20192;-71
2023/12/10 01:28:10;;;;;;;1.17;0.93;;;19.30;58.40;;;;;;4971245;28;20233;-72
2023/12/10 01:30:37;;;;;;;1.10;1.00;;;19.30;58.40;;;;;;4969280;28;20215;-72
2023/12/10 01:33:03;;;;;;;1.13;0.88;;;19.30;58.40;;;;;;4974684;28;20190;-72
2023/12/10 01:35:29;;;;;;;0.88;0.73;;;19.30;58.40;;;;;;4971222;28;20244;-72
2023/12/10 01:37:55;;;;;;;1.50;0.80;;;19.30;58.40;;;;;;4994182;28;20197;-72
2023/12/10 01:40:21;;;;;;;0.82;0.73;;;19.30;58.40;;;;;;4981854;28;20225;-73
2023/12/10 01:42:47;;;;;;;1.95;1.10;;;19.30;58.40;;;;;;4997964;28;20185;-73
2023/12/10 01:45:14;;;;;;;1.30;0.90;;;19.30;58.40;;;;;;4978637;28;20266;-73
2023/12/10 01:47:45;;;;;;;1.08;0.95;;;19.30;58.40;;;;;;4979551;28;20661;-72
2023/12/10 01:50:12;;;;;;;2.20;1.00;;;19.30;58.40;;;;;;4976943;28;20221;-71
2023/12/10 01:52:49;;;;;;;2.08;1.05;;;19.30;58.40;;;;;;4974658;28;20657;-72
2023/12/10 01:55:16;;;;;;;0.82;0.73;;;19.30;58.50;;;;;;4991003;28;20229;-72
2023/12/10 01:57:42;;;;;;;1.20;0.90;;;19.30;58.40;;;;;;4974762;28;20237;-72
2023/12/10 02:00:09;;;;;;;1.17;0.93;;;19.30;58.40;;;;;;4974259;28;20205;-72
2023/12/10 02:02:42;;;;;;;1.70;0.75;;;19.30;58.40;;;;;;4977637;28;20193;-72
2023/12/10 02:05:09;;;;;;;2.25;1.20;;;19.30;59.00;;;;;;4975811;28;20189;-72
2023/12/10 02:07:36;;;;;;;1.15;1.00;;;19.30;58.40;;;;;;4993529;28;20189;-72
2023/12/10 02:10:06;;;;;;;1.98;1.08;;;19.30;58.40;;;;;;4983126;28;20312;-72
2023/12/10 02:12:34;;;;;;;2.00;1.00;;;19.30;58.40;;;;;;4990685;28;20190;-72
2023/12/10 02:15:15;;;;;;;3.13;1.23;;;19.30;58.40;;;;;;4970050;28;20273;-72
2023/12/10 02:17:43;;;;;;;2.80;1.40;;;19.30;58.50;;;;;;4990627;28;20194;-72
2023/12/10 02:20:13;;;;;;;2.75;1.15;;;19.30;58.40;;;;;;4960333;28;20268;-70
2023/12/10 02:22:47;;;;;;;2.03;1.30;;;19.30;58.50;;;;;;4975963;28;20201;-72
2023/12/10 02:25:17;;;;;;;2.97;1.10;;;19.30;58.40;;;;;;4979896;28;20188;-71
2023/12/10 02:27:43;;;;;;;1.92;0.85;;;19.30;58.40;;;;;;4979491;28;20212;-72
2023/12/10 02:30:09;;;;;;;3.10;1.10;;;19.30;58.50;;;;;;4977255;28;20701;-72
2023/12/10 02:32:35;;;;;;;3.22;1.30;;;19.30;58.40;;;;;;4992542;28;20244;-72
2023/12/10 02:35:01;;;;;;;3.47;1.38;;;19.30;58.40;;;;;;4974042;28;20605;-72
2023/12/10 02:37:27;;;;;;;2.05;0.98;;;19.30;58.40;;;;;;4974046;28;20193;-72
2023/12/10 02:39:52;;;;;;;2.17;1.30;;;19.30;58.40;;;;;;4976632;28;20292;-72
2023/12/10 02:42:18;;;;;;;2.47;1.20;;;19.30;58.50;;;;;;4971870;28;20194;-71
2023/12/10 02:44:44;;;;;;;2.15;1.15;;;19.30;58.40;;;;;;4957616;28;20189;-72
2023/12/10 02:47:10;;;;;;;2.70;1.00;;;19.30;58.40;;;;;;4984699;28;20212;-72
2023/12/10 02:49:35;;;;;;;2.25;1.10;;;19.30;58.40;;;;;;4970415;28;20222;-72
2023/12/10 02:52:01;;;;;;;2.15;1.08;;;19.30;58.40;;;;;;4973627;28;20268;-71
2023/12/10 02:54:27;;;;;;;1.60;1.13;;;19.30;58.40;;;;;;4959906;28;20205;-71
2023/12/10 02:56:53;;;;;;;1.60;1.20;;;19.30;58.40;;;;;;4967832;28;20265;-72
2023/12/10 02:59:18;;;;;;;2.75;1.30;;;19.30;58.40;;;;;;4973375;28;20221;-72
2023/12/10 03:01:44;;;;;;;2.10;1.50;;;19.30;58.40;;;;;;4989623;28;20194;-72
2023/12/10 03:04:10;;;;;;;1.23;1.10;;;19.30;58.40;;;;;;4973405;28;20243;-72
2023/12/10 03:06:36;;;;;;;2.47;1.02;;;19.30;58.40;;;;;;4989382;28;20190;-72
2023/12/10 03:09:02;;;;;;;2.30;1.45;;;19.30;58.40;;;;;;4983757;28;20209;-72
2023/12/10 03:11:27;;;;;;;2.10;0.95;;;19.30;58.40;;;;;;4969540;28;20189;-72
2023/12/10 03:13:53;;;;;;;2.75;1.25;;;19.30;58.40;;;;;;4970284;28;20188;-72
2023/12/10 03:16:19;;;;;;;2.25;1.20;;;19.30;58.40;;;;;;4984445;28;20186;-72
2023/12/10 03:18:45;;;;;;;2.83;1.10;;;19.30;58.40;;;;;;4972269;28;20186;-71
2023/12/10 03:21:10;;;;;;;2.22;1.15;;;19.30;58.50;;;;;;4969386;28;20221;-72
2023/12/10 03:23:36;;;;;;;2.47;1.05;;;19.30;58.40;;;;;;4985371;28;20201;-72
2023/12/10 03:26:02;;;;;;;3.55;1.42;;;19.30;58.40;;;;;;4949035;28;20201;-72
2023/12/10 03:28:28;;;;;;;2.13;1.35;;;19.30;58.40;;;;;;4981034;28;20227;-71
2023/12/10 03:30:53;;;;;;;1.60;0.93;;;19.30;58.40;;;;;;4951652;28;20214;-72
2023/12/10 03:33:19;;;;;;;2.15;1.17;;;19.30;58.50;;;;;;4961556;28;20197;-72
2023/12/10 03:35:45;;;;;;;2.97;1.13;;;19.30;58.50;;;;;;4947956;28;20193;-71
2023/12/10 03:38:11;;;;;;;2.25;1.05;;;19.30;58.40;;;;;;4979172;28;20189;-71
2023/12/10 03:40:38;;;;;;;2.00;1.05;;;19.30;58.40;;;;;;4985113;28;20213;-72
2023/12/10 03:43:03;;;;;;;1.67;1.17;;;19.30;58.40;;;;;;4970150;28;20190;-71
2023/12/10 03:45:29;;;;;;;2.15;1.10;;;19.30;58.40;;;;;;4981775;28;20198;-71
2023/12/10 03:47:55;;;;;;;2.58;1.17;;;19.30;58.40;;;;;;4972480;28;20194;-71
2023/12/10 03:50:20;;;;;;;2.00;0.98;;;19.30;58.50;;;;;;4970604;28;20206;-71
2023/12/10 03:52:46;;;;;;;2.33;1.30;;;19.30;58.40;;;;;;4975798;28;20561;-71
2023/12/10 03:55:12;;;;;;;2.65;1.25;;;19.30;58.40;;;;;;4987233;28;20194;-72
2023/12/10 03:57:38;;;;;;;1.85;1.02;;;19.30;58.40;;;;;;4958210;28;20608;-71
2023/12/10 04:00:04;;;;;;;1.67;1.00;;;19.30;58.40;;;;;;4957773;28;20252;-72
2023/12/10 04:02:38;;;;;;;2.03;1.17;;;19.30;58.40;;;;;;4984853;28;20206;-71
2023/12/10 04:05:04;;;;;;;2.22;0.98;;;19.30;58.40;;;;;;4985902;28;20194;-72
2023/12/10 04:07:30;;;;;;;2.80;1.27;;;19.30;58.40;;;;;;4957418;28;20288;-71
2023/12/10 04:09:57;;;;;;;1.52;1.00;;;19.30;58.40;;;;;;4983039;28;20285;-71
2023/12/10 04:12:23;;;;;;;2.05;1.10;;;19.30;58.40;;;;;;4969523;28;20669;-71
2023/12/10 04:14:48;;;;;;;2.92;1.23;;;19.30;58.50;;;;;;4978970;28;20209;-71
2023/12/10 04:17:14;;;;;;;2.20;1.10;;;19.30;58.40;;;;;;4973229;28;20212;-71
2023/12/10 04:19:41;;;;;;;1.88;1.00;;;19.30;58.50;;;;;;4971690;28;20213;-71
2023/12/10 04:22:07;;;;;;;1.90;1.02;;;19.30;58.40;;;;;;4986078;28;20204;-71
2023/12/10 04:24:33;;;;;;;2.08;0.93;;;19.30;58.40;;;;;;4980037;28;20197;-72
2023/12/10 04:26:59;;;;;;;2.17;1.02;;;19.30;58.50;;;;;;4980019;28;20185;-72
2023/12/10 04:29:25;;;;;;;1.67;0.93;;;19.30;58.40;;;;;;4971585;28;20280;-72
2023/12/10 04:31:50;;;;;;;1.25;0.90;;;19.30;58.40;;;;;;4973167;28;20280;-72
2023/12/10 04:34:16;;;;;;;1.42;0.80;;;19.30;58.40;;;;;;4984928;28;20190;-71
2023/12/10 04:36:42;;;;;;;2.60;1.27;;;19.30;58.50;;;;;;4987602;28;20217;-71
2023/12/10 04:39:08;;;;;;;2.63;1.10;;;19.30;58.50;;;;;;4986162;28;20189;-72
2023/12/10 04:41:34;;;;;;;2.08;1.10;;;19.30;58.40;;;;;;4985925;28;20201;-71
2023/12/10 04:44:00;;;;;;;2.13;1.17;;;19.30;58.40;;;;;;4987021;28;20197;-71
2023/12/10 04:46:26;;;;;;;2.28;1.10;;;19.30;58.40;;;;;;4985937;28;20255;-71
2023/12/10 04:48:52;;;;;;;2.15;1.20;;;19.30;58.40;;;;;;4971372;28;20209;-72
2023/12/10 04:51:18;;;;;;;2.78;1.20;;;19.30;58.40;;;;;;4952633;29;20187;-72
2023/12/10 04:53:44;;;;;;;1.60;1.00;;;19.30;58.40;;;;;;4971219;28;20177;-72
2023/12/10 04:56:10;;;;;;;2.03;1.30;;;19.30;58.40;;;;;;4978242;28;20228;-71
2023/12/10 04:58:35;;;;;;;1.85;1.10;;;19.30;58.40;;;;;;4962171;28;20196;-71
2023/12/10 05:01:02;;;;;;;2.08;1.40;;;19.30;58.40;;;;;;4986438;28;20213;-71
2023/12/10 05:03:28;;;;;;;2.40;1.10;;;19.30;58.40;;;;;;4986869;28;20197;-73
2023/12/10 05:05:55;;;;;;;2.10;1.42;;;19.30;58.40;;;;;;4962825;28;20190;-71
2023/12/10 05:08:21;;;;;;;1.73;1.10;;;19.30;58.40;;;;;;4973236;28;20228;-72
2023/12/10 05:10:47;;;;;;;2.15;1.20;;;19.30;58.40;;;;;;4979583;28;20205;-71
2023/12/10 05:13:13;;;;;;;2.28;1.05;;;19.30;58.40;;;;;;4972377;28;20186;-71
2023/12/10 05:15:38;;;;;;;1.60;1.10;;;19.30;58.40;;;;;;4958177;28;20182;-71
2023/12/10 05:18:04;;;;;;;2.10;1.17;;;19.30;58.40;;;;;;4988905;28;20587;-70
2023/12/10 05:20:30;;;;;;;1.60;1.15;;;19.30;58.40;;;;;;4975437;28;20256;-72
2023/12/10 05:22:59;;;;;;;2.25;1.00;;;19.30;58.40;;;;;;4975217;28;20201;-71
2023/12/10 05:25:30;;;;;;;2.50;1.20;;;19.30;58.40;;;;;;4975201;28;20194;-71
2023/12/10 05:27:56;;;;;;;3.30;1.50;;;19.30;58.40;;;;;;4967805;28;20197;-71
2023/12/10 05:30:22;;;;;;;2.25;1.20;;;19.30;59.00;;;;;;4958637;28;20240;-71
2023/12/10 05:32:48;;;;;;;2.28;1.33;;;19.30;58.40;;;;;;4975215;28;20657;-72
2023/12/10 05:35:14;;;;;;;2.53;1.27;;;19.30;58.40;;;;;;4959190;28;20205;-71
2023/12/10 05:37:40;;;;;;;2.30;1.38;;;19.30;59.00;;;;;;4958936;28;20247;-71
2023/12/10 05:40:07;;;;;;;2.17;1.35;;;19.30;58.40;;;;;;4974930;28;20323;-71
2023/12/10 05:42:32;;;;;;;1.98;1.08;;;19.30;58.40;;;;;;4958679;28;20189;-71
2023/12/10 05:44:58;;;;;;;1.98;1.40;;;19.30;58.40;;;;;;4965844;28;20596;-70
2023/12/10 05:47:24;;;;;;;3.95;1.30;;;19.30;58.40;;;;;;4974887;28;20193;-70
2023/12/10 05:49:50;;;;;;;2.65;1.50;;;19.30;58.40;;;;;;4975698;28;20213;-71
2023/12/10 05:52:16;;;;;;;1.75;1.20;;;19.30;58.30;;;;;;4991394;28;20185;-71
2023/12/10 05:54:42;;;;;;;2.17;1.17;;;19.30;58.40;;;;;;4958366;28;20198;-72
2023/12/10 05:57:08;;;;;;;2.88;1.42;;;19.30;58.40;;;;;;4953554;28;20289;-72
2023/12/10 05:59:34;;;;;;;2.88;1.27;;;19.30;58.40;;;;;;4979938;28;20217;-71
2023/12/10 06:01:59;;;;;;;2.25;1.40;;;19.30;58.40;;;;;;4974514;28;20236;-71
2023/12/10 06:04:25;;;;;;;3.63;1.55;;;19.30;58.40;;;;;;4982620;28;20196;-72
2023/12/10 06:06:51;;;;;;;1.70;1.38;;;19.30;58.40;;;;;;4990631;28;20201;-70
2023/12/10 06:09:17;;;;;;;2.28;1.13;;;19.30;58.40;;;;;;4982459;28;20229;-71
2023/12/10 06:11:42;;;;;;;2.30;1.48;;;19.30;58.40;;;;;;4974463;28;20221;-71
2023/12/10 06:14:08;;;;;;;2.40;1.30;;;19.30;58.40;;;;;;4971020;28;20218;-71
2023/12/10 06:16:34;;;;;;;2.22;1.58;;;19.30;58.40;;;;;;4969260;28;20226;-71
2023/12/10 06:19:00;;;;;;;2.35;1.70;;;19.30;58.40;;;;;;4994182;28;20196;-71
2023/12/10 06:21:25;;;;;;;2.15;1.48;;;19.30;58.40;;;;;;4977824;28;20713;-72
2023/12/10 06:23:51;;;;;;;2.28;1.38;;;19.20;58.30;;;;;;4972961;28;20272;-71
2023/12/10 06:26:18;;;;;;;2.30;1.52;;;19.30;58.40;;;;;;5004520;28;20188;-71
2023/12/10 06:28:44;;;;;;;2.25;1.42;;;19.30;58.40;;;;;;4991264;28;20218;-72
2023/12/10 06:31:10;;;;;;;2.85;1.52;;;19.30;58.40;;;;;;4973895;28;20647;-71
2023/12/10 06:33:35;;;;;;;3.13;1.60;;;19.30;58.30;;;;;;4990254;28;20216;-72
2023/12/10 06:36:01;;;;;;;1.88;1.40;;;19.30;58.40;;;;;;4973918;28;20210;-71
2023/12/10 06:38:27;;;;;;;2.20;1.45;;;19.30;58.40;;;;;;4974842;28;20205;-71
2023/12/10 06:40:53;;;;;;;2.92;1.50;;;19.30;58.30;;;;;;4973593;28;20213;-71
2023/12/10 06:43:21;;;;;;;3.13;1.73;;;19.30;58.30;;;;;;4974068;28;20229;-71
2023/12/10 06:45:47;;;;;;;2.15;1.40;;;19.30;58.30;;;;;;4972951;28;20253;-71
2023/12/10 06:48:13;;;;;;;2.67;1.50;;;19.30;58.30;;;;;;4974613;28;20277;-70
2023/12/10 06:50:39;;;;;;;1.73;1.02;;;19.30;58.30;;;;;;4981112;28;20304;-70
2023/12/10 06:53:05;;;;;;;2.15;1.60;;;19.30;58.30;;;;;;4973695;28;20193;-71
2023/12/10 06:55:30;;;;;;;2.30;1.38;;;19.30;58.40;;;;;;4981093;28;20197;-70
2023/12/10 06:57:56;;;;;;;2.90;1.27;;;19.30;58.30;;;;;;4973371;28;20200;-72
2023/12/10 07:00:22;;;;;;;3.67;1.27;;;19.30;58.30;;;;;;4989540;28;20301;-72
2023/12/10 07:02:48;;;;;;;3.42;1.20;;;19.30;58.30;;;;;;4956655;28;20209;-71
2023/12/10 07:05:13;;;;;;;2.35;1.33;;;19.30;58.30;;;;;;4989860;28;20193;-71
2023/12/10 07:07:39;;;;;;;3.75;1.60;;;19.30;58.30;;;;;;4973528;28;20182;-72
2023/12/10 07:10:06;;;;;;;3.08;1.90;;;19.30;58.40;;;;;;4972973;28;20285;-71
2023/12/10 07:12:31;;;;;;;2.47;1.50;;;19.30;58.30;;;;;;4973325;28;20198;-71
2023/12/10 07:14:57;;;;;;;2.78;1.55;;;19.30;58.30;;;;;;4964361;28;20194;-72
2023/12/10 07:17:23;;;;;;;2.22;1.30;;;19.30;58.30;;;;;;4973265;28;20181;-71
2023/12/10 07:19:49;;;;;;;2.17;1.17;;;19.30;58.30;;;;;;4972707;28;20217;-71
2023/12/10 07:22:14;;;;;;;3.40;1.60;;;19.30;58.40;;;;;;4981385;28;20249;-71
2023/12/10 07:24:40;;;;;;;3.08;1.75;;;19.30;58.30;;;;;;4981329;28;20221;-71
2023/12/10 07:27:06;;;;;;;2.35;1.40;;;19.30;58.30;;;;;;4970597;28;20212;-70
2023/12/10 07:29:32;;;;;;;1.83;1.40;;;19.30;58.30;;;;;;4979624;28;20221;-71
2023/12/10 07:31:57;;;;;;;2.22;1.40;;;19.30;58.30;;;;;;4974351;28;20194;-72
2023/12/10 07:34:23;;;;;;;3.00;1.45;;;19.30;58.30;;;;;;4972478;28;20213;-71
2023/12/10 07:36:49;;;;;;;2.85;1.50;;;19.30;58.30;;;;;;4972516;28;20192;-71
2023/12/10 07:39:15;;;;;;;1.80;1.50;;;19.30;58.30;;;;;;4972389;28;20217;-71
2023/12/10 07:41:40;;;;;;;2.25;1.48;;;19.30;58.20;;;;;;4982514;28;20198;-72
2023/12/10 07:44:07;;;;;;;2.30;1.30;;;19.30;58.30;;;;;;4979391;28;20194;-72
2023/12/10 07:46:32;;;;;;;1.95;1.23;;;19.30;58.20;;;;;;4976985;28;20186;-71
2023/12/10 07:48:58;;;;;;;2.72;1.50;;;19.30;58.20;;;;;;4978917;28;20225;-71
2023/12/10 07:51:24;;;;;;;2.47;1.50;;;19.30;58.20;;;;;;4973775;28;20185;-72
2023/12/10 07:53:50;;;;;;;2.20;1.35;;;19.30;58.30;;;;;;4978995;28;20184;-71
2023/12/10 07:56:15;;;;;;;3.38;1.65;;;19.30;58.30;;;;;;4972691;28;20186;-72
2023/12/10 07:58:41;;;;;;;3.40;1.23;;;19.30;58.30;;;;;;4957885;28;20216;-70
2023/12/10 08:01:09;;;;;;;2.47;1.60;;;19.30;58.20;;;;;;4988506;28;20266;-71
2023/12/10 08:03:36;;;;;;;2.40;1.60;;;19.30;58.30;;;;;;4973949;28;20185;-71
2023/12/10 08:06:02;;;;;;;2.10;1.40;;;19.30;58.30;;;;;;4972232;28;20285;-71
2023/12/10 08:08:28;;;;;;;2.35;1.42;;;19.30;58.30;;;;;;4972016;28;20244;-71
2023/12/10 08:10:54;;;;;;;2.33;1.30;;;19.30;58.20;;;;;;4972806;28;20210;-71
2023/12/10 08:13:19;;;;;;;3.15;1.40;;;19.30;58.20;;;;;;4976730;28;20188;-71
2023/12/10 08:15:45;;;;;;;3.10;1.17;;;19.30;58.30;;;;;;4972081;28;20193;-71
2023/12/10 08:18:11;;;;;;;2.25;1.33;;;19.30;58.20;;;;;;4977515;28;20193;-70
2023/12/10 08:20:37;;;;;;;2.40;1.30;;;19.30;58.20;;;;;;4990261;28;20307;-71
2023/12/10 08:23:02;;;;;;;2.60;1.60;;;19.30;58.20;;;;;;4973270;28;20193;-71
2023/12/10 08:25:28;;;;;;;2.53;1.52;;;19.30;58.20;;;;;;4971993;28;20181;-70
2023/12/10 08:27:54;;;;;;;2.35;1.27;;;19.30;58.20;;;;;;4970019;28;20325;-71
2023/12/10 08:30:20;;;;;;;1.60;1.23;;;19.30;58.20;;;;;;4992273;28;20217;-71
2023/12/10 08:32:46;;;;;;;2.10;1.10;;;19.30;58.20;;;;;;4971723;28;20178;-71
2023/12/10 08:35:12;;;;;;;2.53;1.33;;;19.30;58.20;;;;;;4988125;28;20197;-71
2023/12/10 08:37:38;;;;;;;2.42;1.23;;;19.30;58.20;;;;;;4961661;28;20181;-71
2023/12/10 08:40:07;;;;;;;2.45;1.20;;;19.30;58.10;;;;;;4993382;28;20217;-71
2023/12/10 08:42:32;;;;;;;2.67;1.23;;;19.30;58.10;;;;;;4973782;28;20193;-71
2023/12/10 08:44:59;;;;;;;3.42;1.60;;;19.30;58.10;;;;;;4974937;28;20273;-71
2023/12/10 08:47:24;;;;;;;1.63;1.20;;;19.30;58.10;;;;;;4991540;28;20276;-71
2023/12/10 08:49:51;;;;;;;2.75;1.25;;;19.30;58.10;;;;;;4988706;28;20296;-71
2023/12/10 08:52:17;;;;;;;2.08;1.60;;;19.30;58.10;;;;;;4976603;28;20325;-71
2023/12/10 08:54:43;;;;;;;2.50;1.33;;;19.30;58.10;;;;;;4955745;28;20268;-71
2023/12/10 08:57:08;;;;;;;1.70;1.15;;;19.30;58.10;;;;;;4954332;28;20196;-71
2023/12/10 08:59:34;;;;;;;2.53;1.55;;;19.30;58.10;;;;;;4986861;28;20236;-71
2023/12/10 09:02:00;;;;;;;3.58;1.40;;;19.30;58.20;;;;;;4971865;28;20220;-71
2023/12/10 09:04:26;;;;;;;2.85;1.10;;;19.30;58.10;;;;;;4972574;28;20190;-71
2023/12/10 09:06:52;;;;;;;2.10;1.20;;;19.30;58.10;;;;;;4969366;28;20200;-72
2023/12/10 09:09:17;;;;;;;1.95;1.40;;;19.30;58.10;;;;;;4971317;28;20209;-72
2023/12/10 09:11:43;;;;;;;3.33;1.38;;;19.40;58.80;;;;;;4969871;28;20189;-71
2023/12/10 09:14:11;;;;;;;2.63;1.30;;;19.40;58.20;;;;;;4974801;28;20631;-71
2023/12/10 09:16:37;;;;;;;2.00;1.30;;;19.40;58.20;;;;;;4969101;28;20285;-70
2023/12/10 09:19:03;;;;;;;1.42;1.20;;;19.30;58.10;;;;;;4966591;28;20205;-72
2023/12/10 09:21:29;;;;;;;2.25;1.00;;;19.40;58.20;;;;;;4985106;28;20289;-71
2023/12/10 09:23:56;;;;;;;2.55;1.33;;;19.40;58.10;;;;;;4955588;28;20192;-70
2023/12/10 09:26:22;;;;;;;2.90;1.50;;;19.40;58.10;;;;;;4978703;28;20281;-71
2023/12/10 09:28:47;;;;;;;1.60;1.00;;;19.40;58.10;;;;;;4968856;28;20301;-71
2023/12/10 09:31:13;;;;;;;2.58;1.33;;;19.40;58.10;;;;;;4975923;28;20227;-70
2023/12/10 09:33:39;;;;;;;2.40;1.00;;;19.40;58.10;;;;;;4951781;28;20189;-70
2023/12/10 09:36:05;;;;;;;2.65;1.13;;;19.40;58.10;;;;;;4971636;28;20193;-70
2023/12/10 09:38:31;;;;;;;2.58;1.17;;;19.40;58.10;;;;;;4992741;28;20672;-69
2023/12/10 09:40:56;;;;;;;1.25;1.10;;;19.40;58.10;;;;;;4955113;28;20222;-71
2023/12/10 09:43:23;;;;;;;1.70;1.10;;;19.40;58.10;;;;;;4972827;28;20248;-71
2023/12/10 09:45:49;;;;;;;2.17;1.50;;;19.40;58.10;;;;;;4972388;28;20209;-71
2023/12/10 09:48:16;;;;;;;2.95;1.17;;;19.40;58.10;;;;;;4968050;28;20194;-72
2023/12/10 09:50:42;;;;;;;1.67;0.82;;;19.40;58.10;;;;;;4987269;28;20210;-71
2023/12/10 09:53:08;;;;;;;1.90;1.02;;;19.40;58.20;;;;;;4972244;28;20201;-71
2023/12/10 09:55:35;;;;;;;1.75;1.20;;;19.40;58.20;;;;;;4972237;28;20189;-69
2023/12/10 09:58:02;;;;;;;2.30;1.40;;;19.40;58.10;;;;;;4978027;28;20182;-70
2023/12/10 10:00:28;;;;;;;2.20;1.15;;;19.40;58.10;;;;;;4974556;28;20263;-69
2023/12/10 10:03:03;;;;;;;1.40;1.27;;;19.40;58.20;;;;;;4975723;28;20181;-70
2023/12/10 10:05:29;;;;;;;1.52;1.00;;;19.40;58.10;;;;;;4971612;28;20182;-70
2023/12/10 10:07:55;;;;;;;1.90;1.42;;;19.40;58.20;;;;;;4975638;28;20197;-71
2023/12/10 10:10:22;;;;;;;2.63;1.20;;;19.40;58.20;;;;;;4990405;28;20260;-71
2023/12/10 10:12:48;;;;;;;2.58;1.40;;;19.40;58.20;;;;;;4975132;28;20192;-71
2023/12/10 10:15:25;;;;;;;2.03;1.30;;;19.40;58.10;;;;;;4973870;28;20240;-71
2023/12/10 10:17:52;;;;;;;3.10;1.20;;;19.40;58.10;;;;;;4979127;28;20220;-70
2023/12/10 10:20:18;;;;;;;1.83;1.00;;;19.40;58.10;;;;;;4959344;28;20293;-70
2023/12/10 10:22:46;;;;;;;3.20;1.65;;;19.50;58.20;;;;;;4974050;28;20259;-70
2023/12/10 10:25:12;;;;;;;2.38;1.30;;;19.50;58.20;;;;;;4972980;28;20246;-70
2023/12/10 10:27:38;;;;;;;2.30;1.15;;;19.50;58.10;;;;;;4974008;28;20202;-69
2023/12/10 10:30:05;;;;;;;1.83;0.90;;;19.50;58.70;;;;;;4987902;28;20229;-70
2023/12/10 10:32:30;;;;;;;2.30;1.40;;;19.50;58.20;;;;;;4989998;28;20273;-69
2023/12/10 10:35:02;;;;;;;2.25;1.17;;;19.50;58.10;;;;;;4977063;28;20264;-70
2023/12/10 10:37:28;;;;;;;3.53;1.30;;;19.50;58.20;;;;;;4974171;28;20200;-70
2023/12/10 10:39:55;;;;;;;2.38;1.30;;;19.50;58.20;;;;;;4982016;28;20210;-69
2023/12/10 10:42:21;;;;;;;1.98;1.15;;;19.50;58.20;;;;;;4982058;28;20190;-70
2023/12/10 10:44:46;;;;;;;3.00;1.58;;;19.50;58.20;;;;;;4977641;28;20204;-70
2023/12/10 10:47:12;;;;;;;2.78;1.40;;;19.50;58.30;;;;;;4966515;28;20201;-69
2023/12/10 10:50:01;;;;;;;2.47;1.30;;;19.50;58.30;;;;;;4974788;28;20285;-70
2023/12/10 10:52:32;;;;;;;2.08;1.02;;;19.40;58.30;;;;;;4986611;28;20276;-70
2023/12/10 10:55:00;;;;;;;1.92;1.20;;;19.50;58.40;;;;;;4970374;28;20788;-69
2023/12/10 10:57:36;;;;;;;2.00;1.40;;;19.50;58.30;;;;;;4989656;28;20206;-70
2023/12/10 11:00:17;;;;;;;2.92;1.45;;;19.50;58.30;;;;;;4979035;28;20209;-71
2023/12/10 11:02:53;;;;;;;1.40;1.15;;;19.50;58.20;;;;;;4973743;28;20205;-70
2023/12/10 11:05:32;;;;;;;2.92;1.30;;;19.50;58.70;;;;;;4973480;28;20189;-71
2023/12/10 11:07:58;;;;;;;3.50;1.25;;;19.50;58.00;;;;;;4971215;28;20229;-71
2023/12/10 11:10:24;;;;;;;1.83;1.08;;;19.50;57.90;;;;;;4968418;28;20216;-70
2023/12/10 11:12:51;;;;;;;1.80;1.00;;;19.50;57.90;;;;;;4973290;28;20273;-71
2023/12/10 11:15:17;;;;;;;2.83;1.33;;;19.50;57.90;;;;;;4973135;28;20273;-71
2023/12/10 11:17:55;;;;;;;2.60;1.20;;;19.50;57.90;;;;;;4977045;28;20273;-71
2023/12/10 11:20:50;;;;;;;1.15;1.05;;;19.50;57.90;;;;;;4973263;28;20276;-72
2023/12/10 11:23:19;;;;;;;2.35;1.17;;;19.50;57.90;;;;;;4970520;28;20594;-71
2023/12/10 11:25:45;;;;;;;2.58;1.20;;;19.50;57.90;;;;;;4984004;28;20252;-71
2023/12/10 11:28:18;;;;;;;2.13;1.38;;;19.50;57.90;;;;;;4988959;28;20189;-70
2023/12/10 11:30:45;;;;;;;1.90;1.10;;;19.50;57.90;;;;;;4989202;28;20272;-71
2023/12/10 11:33:15;;;;;;;1.73;0.90;;;19.50;57.90;;;;;;4958477;28;20200;-71
2023/12/10 11:35:42;;;;;;;1.52;1.20;;;19.50;57.90;;;;;;4968958;28;20273;-72
2023/12/10 11:38:09;;;;;;;3.38;1.02;;;19.50;57.90;;;;;;4990057;28;20684;-70
2023/12/10 11:40:34;;;;;;;2.15;1.02;;;19.50;57.90;;;;;;4973722;28;20209;-71
2023/12/10 11:43:08;;;;;;;2.20;1.20;;;19.50;57.90;;;;;;4980356;28;20190;-71
2023/12/10 11:45:35;;;;;;;2.38;1.05;;;19.50;57.90;;;;;;4967368;28;20203;-71
2023/12/10 11:48:04;;;;;;;1.83;1.10;;;19.50;57.90;;;;;;4972768;28;20253;-71
2023/12/10 11:50:37;;;;;;;2.00;1.05;;;19.50;57.90;;;;;;4963934;28;20602;-71
2023/12/10 11:53:04;;;;;;;2.13;1.10;;;19.50;57.90;;;;;;4972627;28;20186;-71
2023/12/10 11:55:31;;;;;;;2.92;1.20;;;19.50;57.90;;;;;;4983334;28;20203;-71
2023/12/10 11:57:58;;;;;;;3.05;1.30;;;19.50;57.90;;;;;;4985348;28;20204;-71
2023/12/10 12:00:24;;;;;;;1.60;1.15;;;19.50;57.90;;;;;;4991254;28;20237;-71
2023/12/10 12:02:53;;;;;;;1.30;1.08;;;19.60;58.00;;;;;;4972399;28;20247;-70
2023/12/10 12:05:19;;;;;;;1.95;1.20;;;19.50;57.90;;;;;;4972304;28;20688;-71
2023/12/10 12:07:49;;;;;;;2.08;1.00;;;19.50;57.90;;;;;;4973647;28;20189;-70
2023/12/10 12:10:17;;;;;;;2.88;1.38;;;19.50;57.90;;;;;;4973998;28;20213;-71
2023/12/10 12:12:46;;;;;;;1.80;1.20;;;19.60;58.00;;;;;;4972509;28;20189;-71
2023/12/10 12:15:14;;;;;;;1.92;1.10;;;19.60;58.00;;;;;;4972258;28;20197;-71
2023/12/10 12:17:42;;;;;;;2.25;1.15;;;19.60;58.60;;;;;;4970839;28;20201;-71
2023/12/10 12:20:18;;;;;;;3.15;1.17;;;19.50;57.90;;;;;;4966974;28;20210;-71
2023/12/10 12:22:45;;;;;;;3.30;1.20;;;19.50;57.90;;;;;;4971810;28;20204;-71
2023/12/10 12:25:12;;;;;;;2.47;1.10;;;19.50;57.90;;;;;;4956180;28;20194;-71
2023/12/10 12:27:38;;;;;;;3.80;1.13;;;19.60;58.00;;;;;;4972133;28;20189;-72
2023/12/10 12:30:06;;;;;;;2.65;1.23;;;19.50;57.90;;;;;;4974710;28;20229;-71
2023/12/10 12:32:32;;;;;;;1.95;1.10;;;19.50;57.90;;;;;;4961320;28;20221;-71
2023/12/10 12:34:57;;;;;;;2.05;1.15;;;19.50;58.50;;;;;;4973884;28;20221;-70
2023/12/10 12:37:23;;;;;;;1.42;1.13;;;19.50;57.90;;;;;;4972844;28;20197;-71
2023/12/10 12:39:54;;;;;;;2.03;1.20;;;19.50;58.00;;;;;;4984665;28;20252;-69
2023/12/10 12:42:22;;;;;;;1.95;1.27;;;19.50;58.00;;;;;;4972188;28;20193;-70
2023/12/10 12:44:48;;;;;;;2.45;1.33;;;19.50;58.00;;;;;;4971740;28;20200;-70